Time;durP1;ratioP1;P1;durP2;ratioP2;P2;SDS_P1;SDS_P2;PMS_P1;PMS_P2;Temp;Humidity;BMP_temperature;BMP_pressure;BME280_temperature;BME280_humidity;BME280_pressure;Samples;Min_cycle;Max_cycle;Signal;HPM_P1;HPM_P2
2021/05/24 00:01:38;;;;;;;4.22;3.83;;;;;;;23.68;100.00;100957.34;4920354;29;20132;-73
2021/05/24 00:04:23;;;;;;;5.07;3.50;;;;;;;23.91;100.00;100965.56;4919504;29;20373;-72
2021/05/24 00:07:10;;;;;;;7.13;3.28;;;;;;;23.85;100.00;100965.09;4920293;29;20095;-73
2021/05/24 00:09:55;;;;;;;3.95;3.55;;;;;;;24.08;100.00;100967.09;4920549;29;20458;-73
2021/05/24 00:12:46;;;;;;;6.18;3.30;;;;;;;23.58;100.00;100959.78;4920110;29;20160;-73
2021/05/24 00:15:37;;;;;;;5.13;3.33;;;;;;;23.58;100.00;100958.94;4920238;29;20073;-73
2021/05/24 00:18:23;;;;;;;7.32;3.33;;;;;;;23.46;100.00;100970.47;4907163;29;20032;-73
2021/05/24 00:21:10;;;;;;;5.53;3.38;;;;;;;23.48;100.00;100971.22;4920641;29;20028;-73
2021/05/24 00:23:55;;;;;;;6.10;3.50;;;;;;;23.42;100.00;100978.69;4906935;29;20369;-73
2021/05/24 00:26:41;;;;;;;3.70;3.33;;;;;;;23.52;100.00;100980.75;4920326;29;20040;-73
2021/05/24 00:29:27;;;;;;;7.25;3.67;;;;;;;23.39;100.00;100970.03;4919839;29;20032;-73
2021/05/24 00:32:13;;;;;;;4.05;3.47;;;;;;;23.14;100.00;100965.38;4920492;29;20039;-73
2021/05/24 00:34:58;;;;;;;3.97;3.20;;;;;;;23.42;100.00;100972.47;4920099;29;20066;-73
2021/05/24 00:37:44;;;;;;;6.55;3.70;;;;;;;23.35;100.00;100971.19;4907277;29;20043;-72
2021/05/24 00:40:31;;;;;;;4.95;3.35;;;;;;;23.67;100.00;100972.56;4920051;29;20088;-73
2021/05/24 00:43:17;;;;;;;4.22;3.30;;;;;;;22.99;100.00;100976.22;4919609;29;20040;-72
2021/05/24 00:46:03;;;;;;;8.60;3.95;;;;;;;23.43;100.00;100979.56;4907134;29;20393;-73
2021/05/24 00:48:49;;;;;;;4.95;3.47;;;;;;;23.33;100.00;100979.31;4919515;29;20040;-73
2021/05/24 00:51:35;;;;;;;3.72;3.30;;;;;;;23.56;100.00;100983.13;4919670;29;20457;-73
2021/05/24 00:54:22;;;;;;;7.72;3.40;;;;;;;23.50;100.00;100988.03;4906543;29;20036;-73
2021/05/24 00:57:08;;;;;;;4.80;3.85;;;;;;;23.16;100.00;100998.19;4919627;29;20028;-73
2021/05/24 00:59:55;;;;;;;5.68;3.40;;;;;;;23.42;100.00;100995.69;4919290;29;20039;-73
2021/05/24 01:02:41;;;;;;;4.63;3.65;;;;;;;23.00;100.00;100996.63;4919329;29;20449;-73
2021/05/24 01:05:27;;;;;;;4.28;3.88;;;;;;;23.30;100.00;101008.91;4906648;29;20047;-73
2021/05/24 01:08:14;;;;;;;6.22;3.45;;;;;;;23.26;100.00;101017.22;4919098;29;20056;-73
2021/05/24 01:11:00;;;;;;;6.50;3.60;;;;;;;23.52;100.00;101022.56;4906524;29;20406;-73
2021/05/24 01:13:46;;;;;;;5.15;3.38;;;;;;;23.78;100.00;101031.56;4906833;29;20327;-73
2021/05/24 01:16:31;;;;;;;3.65;3.30;;;;;;;23.53;100.00;101028.78;4918767;29;20036;-73
2021/05/24 01:19:18;;;;;;;5.10;3.75;;;;;;;23.23;100.00;101037.00;4906349;29;20092;-73
2021/05/24 01:22:04;;;;;;;4.95;3.78;;;;;;;23.17;100.00;101040.03;4919027;29;20453;-73
2021/05/24 01:24:50;;;;;;;4.78;3.88;;;;;;;23.29;100.00;101043.75;4919383;29;20032;-74
2021/05/24 01:27:36;;;;;;;5.15;3.45;;;;;;;23.40;100.00;101051.97;4918626;29;20043;-74
2021/05/24 01:30:22;;;;;;;6.07;4.10;;;;;;;23.42;100.00;101056.25;4918619;29;20098;-73
2021/05/24 01:33:09;;;;;;;4.30;3.90;;;;;;;23.47;100.00;101050.63;4919291;29;20122;-73
2021/05/24 01:35:55;;;;;;;5.32;3.95;;;;;;;23.09;100.00;101052.16;4918855;29;20040;-72
2021/05/24 01:38:43;;;;;;;9.23;4.40;;;;;;;23.15;100.00;101062.50;4918600;29;20144;-73
2021/05/24 01:41:29;;;;;;;6.05;4.15;;;;;;;22.98;100.00;101084.06;4918617;29;20040;-72
2021/05/24 01:44:33;;;;;;;4.20;3.83;;;;;;;22.77;100.00;101094.28;4918541;29;20114;-73
2021/05/24 01:47:18;;;;;;;6.53;3.83;;;;;;;22.52;100.00;101102.09;4918563;29;20442;-72
2021/05/24 01:50:06;;;;;;;7.53;4.28;;;;;;;22.38;100.00;101111.84;4917983;29;20060;-72
2021/05/24 01:52:52;;;;;;;6.90;4.35;;;;;;;22.50;100.00;101122.66;4935768;29;20032;-72
2021/05/24 01:55:37;;;;;;;9.02;4.18;;;;;;;22.27;100.00;101119.63;4936096;29;20055;-72
2021/05/24 01:58:24;;;;;;;5.85;4.15;;;;;;;22.27;100.00;101123.13;4930917;29;20039;-72
2021/05/24 02:01:10;;;;;;;6.07;4.28;;;;;;;22.12;100.00;101115.19;4920118;29;20035;-73
2021/05/24 02:03:56;;;;;;;5.88;4.15;;;;;;;21.82;100.00;101125.81;4922146;29;20545;-73
2021/05/24 02:06:42;;;;;;;5.60;4.13;;;;;;;21.88;100.00;101120.16;4911494;29;20095;-73
2021/05/24 02:09:28;;;;;;;8.35;4.20;;;;;;;22.07;100.00;101123.44;4925643;29;20036;-72
2021/05/24 02:12:14;;;;;;;7.72;4.07;;;;;;;22.02;100.00;101130.88;4925269;29;20040;-72
2021/05/24 02:15:00;;;;;;;6.30;4.05;;;;;;;21.99;100.00;101132.88;4922517;29;20115;-73
2021/05/24 02:17:46;;;;;;;8.93;4.05;;;;;;;21.88;100.00;101144.16;4919826;29;20036;-72
2021/05/24 02:20:34;;;;;;;5.85;4.20;;;;;;;21.94;100.00;101138.44;4919218;29;20353;-73
2021/05/24 02:23:19;;;;;;;7.22;4.20;;;;;;;21.84;100.00;101145.28;4904642;29;20039;-72
2021/05/24 02:26:05;;;;;;;6.95;4.32;;;;;;;22.01;100.00;101146.97;4905403;29;20062;-72
2021/05/24 02:28:51;;;;;;;7.88;4.00;;;;;;;22.06;100.00;101153.75;4904217;29;20107;-73
2021/05/24 02:31:38;;;;;;;6.82;4.30;;;;;;;21.99;100.00;101162.22;4905415;29;20028;-74
2021/05/24 02:34:23;;;;;;;6.15;4.18;;;;;;;22.00;100.00;101178.16;4918128;29;20335;-71
2021/05/24 02:37:09;;;;;;;10.05;4.65;;;;;;;21.68;100.00;101186.19;4917759;29;20028;-74
2021/05/24 02:39:55;;;;;;;7.28;4.20;;;;;;;21.61;100.00;101204.34;4918022;29;20028;-74
2021/05/24 02:42:41;;;;;;;7.32;4.40;;;;;;;21.53;100.00;101211.91;4904931;29;20038;-73
2021/05/24 02:45:27;;;;;;;9.23;4.85;;;;;;;21.54;100.00;101210.94;4905483;29;20044;-73
2021/05/24 02:48:14;;;;;;;9.00;4.57;;;;;;;21.60;100.00;101218.63;4917728;29;20027;-73
2021/05/24 02:51:00;;;;;;;8.65;4.82;;;;;;;21.38;100.00;101228.72;4917943;29;20036;-73
2021/05/24 02:53:46;;;;;;;8.15;5.20;;;;;;;21.59;100.00;101216.91;4904862;29;20025;-73
2021/05/24 02:56:32;;;;;;;5.88;4.93;;;;;;;20.86;100.00;101213.72;4917573;29;20045;-73
2021/05/24 02:59:18;;;;;;;6.70;5.70;;;;;;;20.84;100.00;101231.59;4904824;29;20115;-74
2021/05/24 03:02:06;;;;;;;7.78;5.18;;;;;;;21.01;100.00;101233.44;4918043;29;20095;-73
2021/05/24 03:04:52;;;;;;;7.47;5.05;;;;;;;21.08;100.00;101250.81;4904950;29;20071;-72
2021/05/24 03:07:38;;;;;;;9.35;5.30;;;;;;;20.97;100.00;101258.53;4918491;29;20056;-72
2021/05/24 03:10:25;;;;;;;8.45;5.80;;;;;;;20.94;100.00;101267.50;4904611;29;20082;-73
2021/05/24 03:13:10;;;;;;;7.63;5.57;;;;;;;21.04;100.00;101279.44;4917603;29;20028;-73
2021/05/24 03:15:56;;;;;;;9.25;6.03;;;;;;;20.19;100.00;101289.03;4917937;29;20032;-73
2021/05/24 03:18:42;;;;;;;7.32;6.35;;;;;;;20.72;100.00;101300.59;4917216;29;20036;-73
2021/05/24 03:21:28;;;;;;;8.55;5.65;;;;;;;20.53;100.00;101300.66;4905209;29;20088;-73
2021/05/24 03:24:14;;;;;;;12.52;6.68;;;;;;;20.64;100.00;101314.31;4917655;29;20029;-72
2021/05/24 03:27:00;;;;;;;9.68;6.30;;;;;;;20.27;100.00;101326.81;4905151;29;20054;-73
2021/05/24 03:29:45;;;;;;;8.27;6.70;;;;;;;20.15;100.00;101328.25;4917310;29;20179;-73
2021/05/24 03:32:32;;;;;;;10.00;6.50;;;;;;;20.27;100.00;101340.97;4917674;29;20036;-73
2021/05/24 03:35:17;;;;;;;8.43;6.90;;;;;;;20.45;100.00;101342.75;4917761;29;20020;-73
2021/05/24 03:38:03;;;;;;;9.50;7.28;;;;;;;20.63;100.00;101360.53;4904636;29;20032;-72
2021/05/24 03:40:49;;;;;;;9.38;7.63;;;;;;;20.58;100.00;101380.31;4907873;29;20032;-73
2021/05/24 03:43:35;;;;;;;11.75;7.57;;;;;;;20.47;100.00;101391.47;4920426;29;20034;-73
2021/05/24 03:46:21;;;;;;;11.40;7.80;;;;;;;20.36;100.00;101393.78;4920855;29;20036;-73
2021/05/24 03:49:07;;;;;;;11.43;7.38;;;;;;;20.35;100.00;101409.81;4920535;29;20032;-73
2021/05/24 03:51:53;;;;;;;13.38;9.10;;;;;;;20.28;100.00;101409.22;4920597;29;20104;-73
2021/05/24 03:54:39;;;;;;;14.15;8.82;;;;;;;20.03;100.00;101427.22;4907545;29;20024;-72
2021/05/24 03:57:25;;;;;;;13.63;8.88;;;;;;;20.17;100.00;101439.94;4920290;29;20036;-72
2021/05/24 04:00:11;;;;;;;14.95;8.32;;;;;;;20.16;100.00;101449.72;4920104;29;20028;-74
2021/05/24 04:02:58;;;;;;;12.75;8.55;;;;;;;20.25;100.00;101451.94;4921137;29;20039;-72
2021/05/24 04:05:46;;;;;;;13.90;9.07;;;;;;;19.56;100.00;101459.50;4907090;29;20136;-73
2021/05/24 04:08:42;;;;;;;14.18;9.30;;;;;;;19.78;100.00;101471.81;4919944;29;20056;-73
2021/05/24 04:11:28;;;;;;;15.02;10.63;;;;;;;20.23;100.00;101476.91;4919997;29;20458;-73
2021/05/24 04:14:14;;;;;;;15.18;9.57;;;;;;;20.30;100.00;101478.38;4919974;29;20072;-73
2021/05/24 04:17:00;;;;;;;13.82;10.18;;;;;;;19.73;100.00;101476.44;4920004;29;20032;-74
2021/05/24 04:19:46;;;;;;;16.92;10.18;;;;;;;19.54;100.00;101475.50;4920144;29;20039;-72
2021/05/24 04:22:31;;;;;;;17.48;10.20;;;;;;;19.49;100.00;101469.50;4919913;29;20036;-73
2021/05/24 04:25:18;;;;;;;13.43;9.60;;;;;;;19.22;100.00;101481.25;4908075;29;20438;-73
2021/05/24 04:28:04;;;;;;;13.00;9.43;;;;;;;19.84;100.00;101473.34;4907076;29;20039;-72
2021/05/24 04:30:50;;;;;;;12.63;9.95;;;;;;;19.69;100.00;101480.16;4920206;29;20024;-76
2021/05/24 04:33:36;;;;;;;14.60;9.65;;;;;;;19.96;100.00;101478.09;4919935;29;20032;-77
2021/05/24 04:36:22;;;;;;;12.52;9.50;;;;;;;20.52;100.00;101479.97;4919739;29;20042;-77
2021/05/24 04:39:08;;;;;;;11.68;9.30;;;;;;;20.25;100.00;101473.25;4920895;29;20035;-77
2021/05/24 04:41:54;;;;;;;13.50;9.40;;;;;;;20.39;100.00;101478.81;4919667;29;20043;-77
2021/05/24 04:44:39;;;;;;;14.27;9.25;;;;;;;20.49;100.00;101498.75;4919995;29;20047;-77
2021/05/24 04:47:25;;;;;;;12.25;9.18;;;;;;;20.79;100.00;101500.00;4919582;29;20115;-77
2021/05/24 04:50:11;;;;;;;15.55;9.18;;;;;;;20.56;100.00;101512.63;4919729;29;20442;-77
2021/05/24 04:52:57;;;;;;;12.98;9.48;;;;;;;20.24;100.00;101505.25;4919507;29;20039;-76
2021/05/24 04:55:44;;;;;;;14.13;9.02;;;;;;;20.32;100.00;101505.75;4919940;29;20024;-78
2021/05/24 04:58:30;;;;;;;14.93;9.25;;;;;;;21.01;100.00;101508.72;4919854;29;20031;-77
2021/05/24 05:01:16;;;;;;;11.80;9.25;;;;;;;20.88;100.00;101533.31;4919515;29;20035;-77
2021/05/24 05:04:02;;;;;;;13.85;9.32;;;;;;;21.03;100.00;101543.31;4918459;29;20377;-77
2021/05/24 05:06:48;;;;;;;11.95;8.70;;;;;;;21.33;100.00;101540.03;4918868;29;20044;-77
2021/05/24 05:09:34;;;;;;;16.20;8.85;;;;;;;21.19;100.00;101537.19;4919305;29;20510;-76
2021/05/24 05:12:20;;;;;;;12.95;7.93;;;;;;;21.66;100.00;101545.50;4918885;29;20401;-77
2021/05/24 05:15:07;;;;;;;15.23;7.88;;;;;;;21.38;100.00;101543.31;4919491;29;20048;-77
2021/05/24 05:17:53;;;;;;;14.65;7.82;;;;;;;21.94;100.00;101567.25;4919364;29;20126;-77
2021/05/24 05:20:38;;;;;;;17.55;7.95;;;;;;;21.96;100.00;101590.22;4919340;29;20028;-77
2021/05/24 05:23:24;;;;;;;11.00;7.15;;;;;;;21.85;100.00;101595.22;4918637;29;20119;-78
2021/05/24 05:26:10;;;;;;;10.10;6.68;;;;;;;22.32;100.00;101596.34;4919411;29;20031;-77
2021/05/24 05:28:56;;;;;;;12.05;7.32;;;;;;;22.33;100.00;101595.41;4918799;29;20123;-77
2021/05/24 05:31:41;;;;;;;9.82;7.55;;;;;;;22.16;100.00;101587.41;4918972;29;20372;-77
2021/05/24 05:34:27;;;;;;;9.77;6.95;;;;;;;21.71;100.00;101607.53;4906122;29;20020;-77
2021/05/24 05:37:13;;;;;;;10.30;7.05;;;;;;;21.52;100.00;101615.53;4919445;29;20068;-76
2021/05/24 05:39:59;;;;;;;13.07;7.13;;;;;;;22.07;100.00;101622.56;4905993;29;20032;-77
2021/05/24 05:42:46;;;;;;;10.95;7.03;;;;;;;22.21;100.00;101627.19;4918443;29;20055;-78
2021/05/24 05:45:32;;;;;;;13.18;7.00;;;;;;;22.22;100.00;101635.13;4919791;29;20036;-81
2021/05/24 05:48:18;;;;;;;9.65;6.38;;;;;;;22.02;100.00;101637.94;4918491;29;20070;-77
2021/05/24 05:51:04;;;;;;;9.68;6.05;;;;;;;22.09;100.00;101644.72;4918793;29;20434;-77
2021/05/24 05:53:52;;;;;;;10.00;6.53;;;;;;;22.17;100.00;101637.19;4918355;29;20091;-78
2021/05/24 05:56:37;;;;;;;12.07;6.25;;;;;;;22.06;100.00;101634.19;4906072;29;20358;-76
2021/05/24 05:59:23;;;;;;;9.18;5.82;;;;;;;22.50;100.00;101635.47;4918417;29;20051;-76
2021/05/24 06:02:09;;;;;;;11.50;6.18;;;;;;;22.46;100.00;101633.91;4917682;29;20036;-77
2021/05/24 06:04:55;;;;;;;8.80;5.57;;;;;;;22.61;100.00;101643.81;4905449;29;20068;-78
2021/05/24 06:07:41;;;;;;;8.57;5.38;;;;;;;22.45;100.00;101647.31;4905453;29;20134;-77
2021/05/24 06:10:27;;;;;;;13.80;5.53;;;;;;;22.54;100.00;101646.84;4917982;29;20040;-78
2021/05/24 06:13:13;;;;;;;7.47;5.38;;;;;;;22.73;100.00;101643.16;4918913;29;20040;-78
2021/05/24 06:15:59;;;;;;;7.55;5.53;;;;;;;22.71;100.00;101636.19;4905563;29;20031;-78
2021/05/24 06:18:44;;;;;;;11.65;5.53;;;;;;;22.88;100.00;101642.34;4918019;29;20143;-73
2021/05/24 06:21:30;;;;;;;7.35;5.53;;;;;;;23.01;100.00;101647.88;4905747;29;20492;-73
2021/05/24 06:24:16;;;;;;;6.47;4.78;;;;;;;23.26;100.00;101654.53;4917779;29;20036;-73
2021/05/24 06:27:02;;;;;;;10.73;4.70;;;;;;;23.33;100.00;101653.25;4905466;29;20040;-74
2021/05/24 06:29:48;;;;;;;7.40;5.00;;;;;;;23.13;100.00;101660.59;4905092;29;20119;-73
2021/05/24 06:32:33;;;;;;;7.90;4.72;;;;;;;23.57;100.00;101671.53;4905134;29;20024;-74
2021/05/24 06:35:21;;;;;;;6.60;4.43;;;;;;;23.62;100.00;101677.53;4917824;29;20099;-74
2021/05/24 06:38:07;;;;;;;7.53;4.60;;;;;;;23.63;100.00;101680.13;4904777;29;20091;-73
2021/05/24 06:40:53;;;;;;;7.28;4.30;;;;;;;23.85;100.00;101677.06;4904868;29;20480;-74
2021/05/24 06:43:39;;;;;;;8.05;4.10;;;;;;;23.52;100.00;101676.28;4904713;29;20127;-73
2021/05/24 06:46:26;;;;;;;8.00;3.95;;;;;;;23.66;100.00;101685.28;4918435;29;20076;-73
2021/05/24 06:49:11;;;;;;;9.93;3.53;;;;;;;23.67;100.00;101689.69;4918199;29;20046;-73
2021/05/24 06:51:57;;;;;;;9.18;4.10;;;;;;;23.80;100.00;101689.84;4918133;29;20040;-73
2021/05/24 06:54:43;;;;;;;8.40;3.33;;;;;;;23.97;100.00;101696.00;4916988;29;20120;-73
2021/05/24 06:57:29;;;;;;;6.80;3.65;;;;;;;23.89;100.00;101695.56;4905063;29;20063;-73
2021/05/24 07:00:15;;;;;;;10.30;3.25;;;;;;;24.04;100.00;101692.03;4917404;29;20040;-73
2021/05/24 07:03:01;;;;;;;6.28;2.97;;;;;;;23.92;100.00;101698.09;4905198;29;20211;-74
2021/05/24 07:05:47;;;;;;;8.38;3.25;;;;;;;24.36;100.00;101703.53;4916929;29;20068;-73
2021/05/24 07:08:33;;;;;;;6.43;2.80;;;;;;;24.64;100.00;101711.72;4917293;29;20079;-73
2021/05/24 07:11:19;;;;;;;7.40;3.03;;;;;;;23.98;100.00;101707.59;4917503;29;20055;-74
2021/05/24 07:14:05;;;;;;;5.50;2.50;;;;;;;24.53;100.00;101706.97;4918650;29;20030;-74
2021/05/24 07:16:53;;;;;;;5.15;2.55;;;;;;;23.67;100.00;101723.63;4908839;29;20028;-73
2021/05/24 07:19:39;;;;;;;2.92;2.50;;;;;;;24.08;100.00;101722.16;4921697;29;20042;-73
2021/05/24 07:22:25;;;;;;;5.95;3.20;;;;;;;24.46;100.00;101732.38;4920884;29;20074;-74
2021/05/24 07:25:11;;;;;;;4.47;2.38;;;;;;;24.68;100.00;101729.34;4921091;29;20454;-74
2021/05/24 07:27:57;;;;;;;6.22;2.30;;;;;;;24.76;100.00;101738.66;4908246;29;20046;-73
2021/05/24 07:30:43;;;;;;;4.13;2.22;;;;;;;25.00;100.00;101744.34;4907786;29;20035;-73
2021/05/24 07:33:28;;;;;;;4.72;2.20;;;;;;;25.35;100.00;101753.81;4920922;29;20028;-74
2021/05/24 07:36:14;;;;;;;5.03;2.30;;;;;;;25.39;100.00;101756.19;4920583;29;20032;-75
2021/05/24 07:39:00;;;;;;;6.63;2.10;;;;;;;25.65;100.00;101755.44;4921195;29;20413;-73
2021/05/24 07:41:46;;;;;;;4.10;2.10;;;;;;;25.13;100.00;101761.41;4920033;29;20024;-73
2021/05/24 07:44:33;;;;;;;4.45;2.50;;;;;;;25.43;100.00;101757.72;4907811;29;20043;-75
2021/05/24 07:47:19;;;;;;;4.80;2.20;;;;;;;25.58;100.00;101762.13;4920354;29;20107;-72
2021/05/24 07:50:05;;;;;;;8.63;4.07;;;;;;;25.80;100.00;101764.31;4920918;29;20032;-73
2021/05/24 07:52:52;;;;;;;4.68;2.05;;;;;;;25.22;100.00;101760.84;4920292;29;20028;-74
2021/05/24 07:55:38;;;;;;;7.13;2.03;;;;;;;25.50;100.00;101745.66;4920865;29;20434;-74
2021/05/24 07:58:24;;;;;;;3.95;1.98;;;;;;;25.39;100.00;101745.47;4907843;29;20032;-73
2021/05/24 08:01:10;;;;;;;3.47;1.92;;;;;;;25.32;100.00;101748.63;4908416;29;20457;-73
2021/05/24 08:03:56;;;;;;;4.18;2.15;;;;;;;25.29;100.00;101735.41;4911267;29;20043;-73
2021/05/24 08:06:42;;;;;;;4.50;1.98;;;;;;;25.91;100.00;101743.88;4926170;29;20368;-73
2021/05/24 08:09:31;;;;;;;8.50;2.45;;;;;;;25.69;100.00;101748.03;4927823;29;20437;-73
2021/05/24 08:12:17;;;;;;;4.18;2.05;;;;;;;25.84;100.00;101749.75;4921423;29;20349;-74
2021/05/24 08:15:09;;;;;;;4.03;2.40;;;;;;;25.88;100.00;101746.75;4921349;29;20028;-74
2021/05/24 08:18:00;;;;;;;4.13;2.70;;;;;;;26.06;100.00;101748.28;4929594;29;20092;-73
2021/05/24 08:20:48;;;;;;;8.23;2.50;;;;;;;26.41;100.00;101749.47;4913859;29;20043;-72
2021/05/24 08:23:33;;;;;;;5.22;2.00;;;;;;;26.72;100.00;101745.66;4914100;29;20054;-75
2021/05/24 08:26:19;;;;;;;5.93;2.05;;;;;;;26.77;100.00;101743.50;4924553;29;20063;-75
2021/05/24 08:29:06;;;;;;;3.85;1.83;;;;;;;27.48;100.00;101742.03;4921053;29;20043;-72
2021/05/24 08:31:55;;;;;;;4.47;2.10;;;;;;;26.89;100.00;101745.34;4920771;29;20480;-76
2021/05/24 08:34:40;;;;;;;4.97;2.30;;;;;;;26.72;100.00;101748.34;4920651;29;20032;-75
2021/05/24 08:37:26;;;;;;;7.05;2.40;;;;;;;26.90;100.00;101742.56;4908195;29;20038;-73
2021/05/24 08:40:13;;;;;;;2.65;1.90;;;;;;;27.39;100.00;101737.31;4920715;29;20039;-78
2021/05/24 08:43:00;;;;;;;2.10;1.90;;;;;;;27.55;99.20;101729.84;4907390;29;20362;-78
2021/05/24 08:45:46;;;;;;;2.55;2.00;;;;;;;27.88;98.34;101731.97;4919884;29;20024;-78
2021/05/24 08:48:33;;;;;;;4.00;2.00;;;;;;;28.05;95.92;101719.00;4894572;29;20201;-77
2021/05/24 08:51:19;;;;;;;6.43;1.73;;;;;;;27.65;96.88;101717.47;4919974;29;20039;-78
2021/05/24 08:54:05;;;;;;;2.83;2.40;;;;;;;27.91;91.08;101723.66;4919248;29;20024;-77
2021/05/24 08:56:51;;;;;;;4.47;1.95;;;;;;;28.18;91.61;101732.41;4919823;29;20035;-77
2021/05/24 08:59:40;;;;;;;6.30;2.08;;;;;;;28.25;92.35;101733.66;4920214;29;20141;-75
2021/05/24 09:02:26;;;;;;;4.53;1.90;;;;;;;28.05;92.04;101718.13;4920181;29;20028;-77
2021/05/24 09:05:18;;;;;;;2.30;1.70;;;;;;;28.02;90.18;101729.13;4907567;29;20454;-73
2021/05/24 09:08:04;;;;;;;3.15;1.90;;;;;;;27.60;94.75;101726.84;4907534;29;20071;-75
2021/05/24 09:10:50;;;;;;;4.72;2.00;;;;;;;28.12;93.66;101725.63;4906930;29;20043;-76
2021/05/24 09:13:36;;;;;;;8.43;2.20;;;;;;;28.05;93.14;101723.50;4906115;29;20047;-76
2021/05/24 09:16:30;;;;;;;4.78;2.17;;;;;;;28.01;92.33;101724.72;4919122;29;20047;-76
2021/05/24 09:19:20;;;;;;;5.93;2.10;;;;;;;27.73;95.24;101719.59;4906493;29;20028;-76
2021/05/24 09:22:08;;;;;;;4.13;1.85;;;;;;;27.88;94.13;101719.34;4919321;29;20027;-76
2021/05/24 09:24:54;;;;;;;5.82;2.00;;;;;;;27.89;96.70;101715.72;4918880;29;20055;-73
2021/05/24 09:27:43;;;;;;;4.32;2.28;;;;;;;27.85;95.97;101724.13;4918675;29;20457;-73
2021/05/24 09:30:29;;;;;;;5.68;2.20;;;;;;;28.17;92.72;101728.88;4918632;29;20103;-73
2021/05/24 09:33:15;;;;;;;3.58;2.00;;;;;;;28.34;93.31;101732.97;4904828;29;20039;-74
2021/05/24 09:36:02;;;;;;;3.67;2.17;;;;;;;28.21;92.66;101726.78;4918821;29;20031;-74
2021/05/24 09:38:53;;;;;;;9.95;2.72;;;;;;;28.30;91.58;101726.09;4906100;29;20039;-78
2021/05/24 09:41:47;;;;;;;3.75;2.15;;;;;;;27.73;94.33;101723.16;4918696;29;20119;-78
2021/05/24 09:44:33;;;;;;;2.15;1.90;;;;;;;27.75;95.90;101723.91;4918850;29;20118;-77
2021/05/24 09:47:39;;;;;;;3.80;2.42;;;;;;;27.79;94.31;101728.09;4918809;29;20066;-77
2021/05/24 09:50:25;;;;;;;3.78;2.13;;;;;;;27.86;94.98;101725.84;4918823;29;20036;-76
2021/05/24 09:53:20;;;;;;;5.07;2.33;;;;;;;27.93;94.08;101727.09;4918931;29;20285;-75
2021/05/24 09:56:14;;;;;;;6.00;1.95;;;;;;;27.55;95.99;101724.47;4918507;29;20039;-75
2021/05/24 09:59:15;;;;;;;4.82;2.22;;;;;;;27.69;93.89;101724.34;4917840;29;20042;-76
2021/05/24 10:02:03;;;;;;;5.38;2.15;;;;;;;27.63;93.91;101726.59;4905219;29;20091;-78
2021/05/24 10:04:51;;;;;;;3.92;2.28;;;;;;;27.15;95.82;101730.94;4905366;29;20346;-75
2021/05/24 10:07:37;;;;;;;4.57;2.33;;;;;;;27.29;96.25;101733.56;4899474;29;20112;-75
2021/05/24 10:10:23;;;;;;;6.63;2.20;;;;;;;27.41;98.39;101730.84;4898993;29;20060;-75
2021/05/24 10:13:10;;;;;;;6.38;2.13;;;;;;;27.75;93.47;101731.97;4898715;29;20028;-76
2021/05/24 10:16:04;;;;;;;10.82;1.92;;;;;;;27.25;93.40;101723.97;4899224;29;20040;-76
2021/05/24 10:18:50;;;;;;;6.10;2.30;;;;;;;26.81;96.06;101726.19;4899744;29;20103;-75
2021/05/24 10:21:35;;;;;;;3.80;1.95;;;;;;;27.02;96.59;101719.31;4898956;29;20036;-74
2021/05/24 10:24:24;;;;;;;3.35;2.40;;;;;;;27.58;93.73;101721.56;4898165;29;20476;-76
2021/05/24 10:27:10;;;;;;;4.55;2.08;;;;;;;26.71;94.04;101719.69;4899387;29;20378;-75
2021/05/24 10:29:56;;;;;;;5.13;2.00;;;;;;;26.65;95.82;101718.28;4898870;29;20020;-75
2021/05/24 10:32:59;;;;;;;3.33;1.80;;;;;;;26.64;98.65;101711.19;4898310;29;20042;-76
2021/05/24 10:35:47;;;;;;;6.18;2.22;;;;;;;27.25;95.87;101705.97;4898956;29;20036;-75
2021/05/24 10:38:34;;;;;;;5.97;2.20;;;;;;;27.61;93.08;101707.88;4899635;29;20033;-76
2021/05/24 10:41:20;;;;;;;5.95;2.03;;;;;;;27.54;94.11;101709.28;4898891;29;20032;-76
2021/05/24 10:44:09;;;;;;;4.70;2.40;;;;;;;27.44;93.42;101700.16;4899706;29;20047;-75
2021/05/24 10:46:58;;;;;;;3.13;2.25;;;;;;;27.28;93.68;101688.75;4899872;29;20033;-76
2021/05/24 10:50:09;;;;;;;2.85;1.92;;;;;;;27.54;92.55;101687.75;4901342;29;20067;-75
2021/05/24 10:53:01;;;;;;;7.07;2.72;;;;;;;27.90;93.48;101687.78;4902711;29;20046;-76
2021/05/24 10:55:49;;;;;;;4.55;2.05;;;;;;;27.70;93.33;101680.28;4903458;29;20033;-76
2021/05/24 10:58:44;;;;;;;4.28;2.67;;;;;;;27.76;92.98;101679.81;4902346;29;20361;-78
2021/05/24 11:01:59;;;;;;;4.93;2.83;;;;;;;27.16;94.45;101689.59;4902889;29;20036;-73
2021/05/24 11:04:56;;;;;;;3.95;2.28;;;;;;;27.40;91.14;101680.66;4902809;29;20033;-73
2021/05/24 11:07:42;;;;;;;3.67;2.58;;;;;;;28.00;89.03;101679.88;4911426;29;20091;-72
2021/05/24 11:10:38;;;;;;;5.25;2.63;;;;;;;28.00;88.19;101674.50;4908601;29;20373;-72
2021/05/24 11:13:25;;;;;;;2.65;2.45;;;;;;;27.88;87.85;101668.16;4908635;29;20167;-74
2021/05/24 11:16:13;;;;;;;5.03;2.40;;;;;;;28.68;82.12;101679.06;4921875;29;20064;-73
2021/05/24 11:19:09;;;;;;;3.22;2.60;;;;;;;28.73;80.38;101684.13;4921148;29;20075;-72
2021/05/24 11:22:34;;;;;;;6.15;2.70;;;;;;;28.09;81.70;101681.88;4921066;29;20040;-72
2021/05/24 11:28:37;;;;;;;3.83;2.50;;;;;;;28.23;77.11;101676.31;4921172;29;20067;-72
2021/05/24 11:31:25;;;;;;;4.25;2.35;;;;;;;28.45;76.51;101673.75;4921553;29;20465;-73
2021/05/24 11:34:25;;;;;;;5.78;2.33;;;;;;;28.51;75.31;101676.81;4921428;29;20024;-73
2021/05/24 11:37:11;;;;;;;4.15;2.80;;;;;;;28.83;72.60;101680.59;4921631;29;20370;-75
2021/05/24 11:39:58;;;;;;;4.53;2.53;;;;;;;28.28;71.40;101679.53;4921266;29;20028;-73
2021/05/24 11:42:45;;;;;;;4.03;2.30;;;;;;;29.06;69.72;101679.69;4920583;29;20036;-73
2021/05/24 11:45:30;;;;;;;4.40;2.40;;;;;;;28.95;69.38;101679.63;4921167;29;20028;-74
2021/05/24 11:48:16;;;;;;;4.43;2.33;;;;;;;29.21;69.61;101678.44;4921244;29;20046;-74
2021/05/24 11:51:04;;;;;;;5.07;2.25;;;;;;;28.59;71.27;101678.91;4920676;29;20032;-74
2021/05/24 11:54:04;;;;;;;4.25;2.10;;;;;;;28.44;71.26;101678.25;4907635;29;20547;-73
2021/05/24 11:56:55;;;;;;;5.22;2.20;;;;;;;28.81;71.75;101679.00;4920604;29;20445;-73
2021/05/24 11:59:41;;;;;;;5.18;2.40;;;;;;;29.58;66.20;101677.22;4920299;29;20038;-74
2021/05/24 12:02:28;;;;;;;5.38;2.40;;;;;;;29.85;64.09;101674.97;4920982;29;20063;-73
2021/05/24 12:05:20;;;;;;;5.85;2.22;;;;;;;30.09;64.85;101678.31;4921451;29;20119;-75
2021/05/24 12:08:06;;;;;;;4.72;2.40;;;;;;;28.64;68.91;101674.88;4920694;29;20067;-75
2021/05/24 12:11:01;;;;;;;4.60;2.58;;;;;;;29.16;66.00;101680.66;4908397;29;20060;-75
2021/05/24 12:14:11;;;;;;;3.53;2.20;;;;;;;29.95;64.99;101670.53;4921009;29;20111;-75
2021/05/24 12:16:57;;;;;;;2.25;2.00;;;;;;;30.27;62.10;101667.84;4920631;29;20032;-78
2021/05/24 12:19:43;;;;;;;5.03;2.20;;;;;;;30.27;59.32;101665.16;4920546;29;20028;-75
2021/05/24 12:22:34;;;;;;;4.43;2.25;;;;;;;29.69;63.16;101670.97;4920514;29;20042;-74
2021/05/24 12:25:20;;;;;;;4.72;2.40;;;;;;;30.32;61.74;101663.78;4907271;29;20104;-74
2021/05/24 12:28:08;;;;;;;4.18;2.10;;;;;;;29.54;62.32;101672.16;4907841;29;20047;-74
2021/05/24 12:30:54;;;;;;;4.22;2.13;;;;;;;29.70;61.92;101678.91;4920462;29;20163;-74
2021/05/24 12:33:47;;;;;;;4.97;2.40;;;;;;;29.82;63.21;101674.38;4920386;29;20062;-72
2021/05/24 12:37:15;;;;;;;4.70;2.85;;;;;;;30.31;63.48;101675.59;4919764;29;20106;-73
2021/05/24 12:39:44;;;;;;;4.63;2.50;;;;;;;29.83;63.89;101667.97;4920882;29;20028;-72
2021/05/24 12:42:33;;;;;;;3.55;2.20;;;;;;;30.16;63.44;101666.06;4920064;29;20032;-72
2021/05/24 12:45:25;;;;;;;4.97;2.40;;;;;;;29.30;65.74;101668.75;4919788;29;20409;-71
2021/05/24 12:48:17;;;;;;;6.18;2.53;;;;;;;29.48;66.19;101664.56;4906858;29;20039;-71
2021/05/24 12:51:14;;;;;;;3.72;2.40;;;;;;;29.01;67.06;101659.44;4920007;29;20458;-72
2021/05/24 12:54:05;;;;;;;2.90;2.17;;;;;;;28.66;70.20;101658.59;4920010;29;20446;-71